createdAt,value
2022-09-23T00:01:05.924Z,2.50
2022-09-23T00:03:33.337Z,1.90
2022-09-23T00:06:11.952Z,2.10
2022-09-23T00:08:39.479Z,2.10
2022-09-23T00:11:08.267Z,2.10
2022-09-23T00:13:36.166Z,1.90
2022-09-23T00:16:11.708Z,2.00
2022-09-23T00:18:38.521Z,1.90
2022-09-23T00:21:11.680Z,2.30
2022-09-23T00:23:40.499Z,1.90
2022-09-23T00:26:08.776Z,2.30
2022-09-23T00:28:36.313Z,2.10
2022-09-23T00:31:06.608Z,2.50
2022-09-23T00:33:33.686Z,2.20
2022-09-23T00:36:01.928Z,2.20
2022-09-23T00:38:29.108Z,2.00
2022-09-23T00:40:56.439Z,2.00
2022-09-23T00:43:49.769Z,2.30
2022-09-23T00:46:39.708Z,2.10
2022-09-23T00:49:27.363Z,2.10
2022-09-23T00:52:06.641Z,1.90
2022-09-23T00:54:33.998Z,2.20
2022-09-23T00:57:01.587Z,2.10
2022-09-23T00:59:29.132Z,1.90
2022-09-23T01:01:57.860Z,2.30
2022-09-23T01:04:26.837Z,2.30
2022-09-23T01:06:53.617Z,2.10
2022-09-23T01:09:21.965Z,2.20
2022-09-23T01:11:52.374Z,2.00
2022-09-23T01:14:45.492Z,2.10
2022-09-23T01:17:40.046Z,2.30
2022-09-23T01:20:31.132Z,2.50
2022-09-23T01:23:22.381Z,2.20
2022-09-23T01:26:00.018Z,2.30
2022-09-23T01:28:52.101Z,2.60
2022-09-23T01:31:29.277Z,2.20
2022-09-23T01:33:58.734Z,2.40
2022-09-23T01:36:47.089Z,2.30
2022-09-23T01:39:24.312Z,2.40
2022-09-23T01:42:04.181Z,2.70
2022-09-23T01:44:38.633Z,2.50
2022-09-23T01:47:10.723Z,2.30
2022-09-23T01:49:50.878Z,2.20
2022-09-23T01:52:25.221Z,2.60
2022-09-23T01:55:01.421Z,2.40
2022-09-23T01:57:33.686Z,2.20
2022-09-23T02:00:18.407Z,2.40
2022-09-23T02:03:04.873Z,2.30
2022-09-23T02:05:56.917Z,2.40
2022-09-23T02:08:34.558Z,2.20
2022-09-23T02:11:22.029Z,2.50
2022-09-23T02:14:03.970Z,2.10
2022-09-23T02:16:44.673Z,2.40
2022-09-23T02:19:17.694Z,2.50
2022-09-23T02:21:50.377Z,2.10
2022-09-23T02:24:25.814Z,2.50
2022-09-23T02:26:59.729Z,2.10
2022-09-23T02:29:37.427Z,2.20
2022-09-23T02:32:15.783Z,2.10
2022-09-23T02:35:00.943Z,2.20
2022-09-23T02:37:45.862Z,2.50
2022-09-23T02:40:23.595Z,2.70
2022-09-23T02:43:05.145Z,2.90
2022-09-23T02:45:31.971Z,3.60
2022-09-23T02:48:05.589Z,3.30
2022-09-23T02:50:33.820Z,4.20
2022-09-23T02:53:01.050Z,5.00
2022-09-23T02:55:32.526Z,5.10
2022-09-23T02:58:03.563Z,5.20
2022-09-23T03:01:05.766Z,5.20
2022-09-23T03:03:53.783Z,5.30
2022-09-23T03:06:43.389Z,5.60
2022-09-23T03:09:33.272Z,5.80
2022-09-23T03:12:15.987Z,5.70
2022-09-23T03:14:55.062Z,6.30
2022-09-23T03:17:31.740Z,6.00
2022-09-23T03:20:12.651Z,5.10
2022-09-23T03:22:51.516Z,5.20
2022-09-23T03:25:25.574Z,5.00
2022-09-23T03:27:57.912Z,5.10
2022-09-23T03:30:26.441Z,4.60
2022-09-23T03:32:55.883Z,4.60
2022-09-23T03:35:26.152Z,5.20
2022-09-23T03:38:00.499Z,4.50
2022-09-23T03:40:32.539Z,4.60
2022-09-23T03:43:01.383Z,4.10
2022-09-23T03:45:32.211Z,4.50
2022-09-23T03:47:58.930Z,4.70
2022-09-23T03:50:25.738Z,4.50
2022-09-23T03:52:52.541Z,4.50
2022-09-23T03:55:19.500Z,4.70
2022-09-23T03:57:46.463Z,4.80
2022-09-23T04:00:14.719Z,4.20
2022-09-23T04:02:41.556Z,4.60
2022-09-23T04:05:09.308Z,4.50
2022-09-23T04:07:35.838Z,4.80
2022-09-23T04:10:02.554Z,4.60
2022-09-23T04:12:29.121Z,4.90
2022-09-23T04:14:55.643Z,4.70
2022-09-23T04:17:22.227Z,4.80
2022-09-23T04:19:48.927Z,4.20
2022-09-23T04:22:15.420Z,5.20
2022-09-23T04:24:41.959Z,4.40
2022-09-23T04:27:08.590Z,5.00
2022-09-23T04:29:35.213Z,5.40
2022-09-23T04:32:01.928Z,5.60
2022-09-23T04:34:28.690Z,5.50
2022-09-23T04:36:55.479Z,5.50
2022-09-23T04:39:22.437Z,5.30
2022-09-23T04:41:49.217Z,5.10
2022-09-23T04:44:16.038Z,4.50
2022-09-23T04:46:43.878Z,5.00
2022-09-23T04:49:10.876Z,4.90
2022-09-23T04:51:37.863Z,4.30
2022-09-23T04:54:04.630Z,4.20
2022-09-23T04:56:34.142Z,4.40
2022-09-23T04:59:01.686Z,4.00
2022-09-23T05:01:31.735Z,3.90
2022-09-23T05:04:05.224Z,4.00
2022-09-23T05:06:37.130Z,4.00
2022-09-23T05:09:07.202Z,3.60
2022-09-23T05:11:34.202Z,3.80
2022-09-23T05:14:01.331Z,3.70
2022-09-23T05:16:27.999Z,3.60
2022-09-23T05:18:54.943Z,11.10
2022-09-23T05:21:23.292Z,6.40
2022-09-23T05:23:55.048Z,4.10
2022-09-23T05:26:25.212Z,3.50
2022-09-23T05:28:52.599Z,3.80
2022-09-23T05:31:24.451Z,3.90
2022-09-23T05:33:57.305Z,4.00
2022-09-23T05:36:25.206Z,3.80
2022-09-23T05:38:52.559Z,3.50
2022-09-23T05:41:23.044Z,3.50
2022-09-23T05:43:51.715Z,3.10
2022-09-23T05:46:27.809Z,3.20
2022-09-23T05:49:01.188Z,3.40
2022-09-23T05:51:31.114Z,3.20
2022-09-23T05:53:59.098Z,3.10
2022-09-23T05:56:27.787Z,3.20
2022-09-23T05:58:56.354Z,3.30
2022-09-23T06:01:25.938Z,2.60
2022-09-23T06:03:54.734Z,2.90
2022-09-23T06:06:27.265Z,3.10
2022-09-23T06:08:53.953Z,2.70
2022-09-23T06:11:21.541Z,3.20
2022-09-23T06:13:49.286Z,2.90
2022-09-23T06:16:16.558Z,2.80
2022-09-23T06:18:45.186Z,3.30
2022-09-23T06:21:16.739Z,3.30
2022-09-23T06:23:44.715Z,2.50
2022-09-23T06:26:13.489Z,3.00
2022-09-23T06:28:41.534Z,2.60
2022-09-23T06:31:13.521Z,2.50
2022-09-23T06:33:42.500Z,3.20
2022-09-23T06:36:10.239Z,3.00
2022-09-23T06:38:41.332Z,2.30
2022-09-23T06:41:08.112Z,2.20
2022-09-23T06:43:34.913Z,1.90
2022-09-23T06:46:06.133Z,2.20
2022-09-23T06:48:35.990Z,4.30
2022-09-23T06:51:12.182Z,2.70
2022-09-23T06:53:39.432Z,3.20
2022-09-23T06:56:08.080Z,4.20
2022-09-23T06:58:36.097Z,5.20
2022-09-23T07:01:16.129Z,2.40
2022-09-23T07:03:43.909Z,2.20
2022-09-23T07:06:10.840Z,2.10
2022-09-23T07:08:37.685Z,1.90
2022-09-23T07:11:07.909Z,1.60
2022-09-23T07:13:34.906Z,1.90
2022-09-23T07:16:02.926Z,2.20
2022-09-23T07:18:36.806Z,2.00
2022-09-23T07:21:15.815Z,1.80
2022-09-23T07:23:47.993Z,1.90
2022-09-23T07:26:15.714Z,1.70
2022-09-23T07:28:42.955Z,2.00
2022-09-23T07:31:20.000Z,4.30
2022-09-23T07:33:57.138Z,1.70
2022-09-23T07:36:24.817Z,2.20
2022-09-23T07:38:51.610Z,1.70
2022-09-23T07:41:19.580Z,1.90
2022-09-23T07:43:47.219Z,2.50
2022-09-23T07:46:17.625Z,1.90
2022-09-23T07:48:45.838Z,3.60
2022-09-23T07:51:18.128Z,2.60
2022-09-23T07:53:48.225Z,2.40
2022-09-23T07:56:15.370Z,1.80
2022-09-23T07:58:42.202Z,1.80
2022-09-23T08:01:10.923Z,1.70
2022-09-23T08:03:38.795Z,2.70
2022-09-23T08:06:12.969Z,12.00
2022-09-23T08:08:43.579Z,4.80
2022-09-23T08:11:12.502Z,2.00
2022-09-23T08:13:39.526Z,1.50
2022-09-23T08:16:06.873Z,1.40
2022-09-23T08:18:34.193Z,1.60
2022-09-23T08:21:01.224Z,1.50
2022-09-23T08:23:27.983Z,1.40
2022-09-23T08:26:02.478Z,1.40
2022-09-23T08:28:29.375Z,1.60
2022-09-23T08:30:56.486Z,1.40
2022-09-23T08:33:24.062Z,1.40
2022-09-23T08:35:51.710Z,1.40
2022-09-23T08:38:18.844Z,1.60
2022-09-23T08:40:49.354Z,1.40
2022-09-23T08:43:28.230Z,1.30
2022-09-23T08:45:57.306Z,2.20
2022-09-23T08:48:34.726Z,1.40
2022-09-23T08:51:11.168Z,1.20
2022-09-23T08:53:38.181Z,2.60
2022-09-23T08:56:14.785Z,3.00
2022-09-23T08:58:53.381Z,1.80
2022-09-23T09:01:38.487Z,1.30
2022-09-23T09:04:15.168Z,1.60
2022-09-23T09:06:52.803Z,1.50
2022-09-23T09:09:29.029Z,1.30
2022-09-23T09:12:07.208Z,4.40
2022-09-23T09:14:50.182Z,8.60
2022-09-23T09:17:25.404Z,1.60
2022-09-23T09:20:03.387Z,6.30
2022-09-23T09:22:48.616Z,3.60
2022-09-23T09:25:36.417Z,5.20
2022-09-23T09:28:13.887Z,8.90
2022-09-23T09:30:43.184Z,19.90
2022-09-23T09:33:15.752Z,2.40
2022-09-23T09:36:01.929Z,5.50
2022-09-23T09:38:28.667Z,3.90
2022-09-23T09:41:01.664Z,2.70
2022-09-23T09:43:28.180Z,2.60
2022-09-23T09:45:57.873Z,1.90
2022-09-23T09:48:50.355Z,1.80
2022-09-23T09:51:25.642Z,1.70
2022-09-23T09:53:52.749Z,1.50
2022-09-23T09:56:33.169Z,3.00
2022-09-23T09:59:13.390Z,3.70
2022-09-23T10:01:39.934Z,6.60
2022-09-23T10:04:22.563Z,2.40
2022-09-23T10:07:09.455Z,1.70
2022-09-23T10:09:37.900Z,3.80
2022-09-23T10:12:13.056Z,2.40
2022-09-23T10:14:39.868Z,2.20
2022-09-23T10:17:07.880Z,2.10
2022-09-23T10:19:43.898Z,2.90
2022-09-23T10:22:18.905Z,2.90
2022-09-23T10:24:51.156Z,1.50
2022-09-23T10:27:31.417Z,8.00
2022-09-23T10:30:04.632Z,4.50
2022-09-23T10:32:37.566Z,1.70
2022-09-23T10:35:24.480Z,2.10
2022-09-23T10:37:54.708Z,2.10
2022-09-23T10:40:57.987Z,2.30
2022-09-23T10:44:01.427Z,2.80
2022-09-23T10:46:39.159Z,2.90
2022-09-23T10:49:43.820Z,1.50
2022-09-23T10:52:45.066Z,1.30
2022-09-23T10:55:36.773Z,2.40
2022-09-23T10:58:26.753Z,1.70
2022-09-23T11:01:08.890Z,3.20
2022-09-23T11:03:58.455Z,2.40
2022-09-23T11:06:34.226Z,5.70
2022-09-23T11:09:17.111Z,1.50
2022-09-23T11:11:46.576Z,1.10
2022-09-23T11:14:59.216Z,1.20
2022-09-23T11:17:49.649Z,1.10
2022-09-23T11:20:23.007Z,1.10
2022-09-23T11:23:18.600Z,1.20
2022-09-23T11:26:09.531Z,1.30
2022-09-23T11:29:04.678Z,1.20
2022-09-23T11:32:17.084Z,1.60
2022-09-23T11:35:04.032Z,1.40
2022-09-23T11:37:37.516Z,1.30
2022-09-23T11:40:17.213Z,1.30
2022-09-23T11:42:59.282Z,1.60
2022-09-23T11:45:32.579Z,1.10
2022-09-23T11:48:15.684Z,2.20
2022-09-23T11:50:54.657Z,12.20
2022-09-23T11:53:32.774Z,1.70
2022-09-23T11:56:07.106Z,3.50
2022-09-23T11:58:49.050Z,2.90
2022-09-23T12:01:37.330Z,1.20
2022-09-23T12:04:23.394Z,4.00
2022-09-23T12:06:58.801Z,3.30
2022-09-23T12:09:56.595Z,3.60
2022-09-23T12:12:27.121Z,3.30
2022-09-23T12:15:04.922Z,5.10
2022-09-23T12:17:56.198Z,1.40
2022-09-23T12:20:42.297Z,1.10
2022-09-23T12:23:23.781Z,0.90
2022-09-23T12:25:54.547Z,1.30
2022-09-23T12:28:26.720Z,1.40
2022-09-23T12:30:56.513Z,1.30
2022-09-23T12:33:26.482Z,1.40
2022-09-23T12:35:54.924Z,0.90
2022-09-23T12:38:39.488Z,1.00
2022-09-23T12:41:38.124Z,2.80
2022-09-23T12:44:08.265Z,1.50
2022-09-23T12:46:34.817Z,2.20
2022-09-23T12:49:03.612Z,3.50
2022-09-23T12:51:32.974Z,4.90
2022-09-23T12:54:14.201Z,2.00
2022-09-23T12:56:40.613Z,2.80
2022-09-23T12:59:16.235Z,2.60
2022-09-23T13:01:44.244Z,4.50
2022-09-23T13:04:49.424Z,2.80
2022-09-23T13:07:34.412Z,2.00
2022-09-23T13:10:09.057Z,2.60
2022-09-23T13:12:39.469Z,1.40
2022-09-23T13:15:18.038Z,2.10
2022-09-23T13:17:44.582Z,1.40
2022-09-23T13:20:20.323Z,2.00
2022-09-23T13:22:49.501Z,1.60
2022-09-23T13:25:28.423Z,1.10
2022-09-23T13:27:57.638Z,1.00
2022-09-23T13:30:26.778Z,0.90
2022-09-23T13:33:09.232Z,0.80
2022-09-23T13:35:39.687Z,0.80
2022-09-23T13:38:25.883Z,0.90
2022-09-23T13:41:13.503Z,0.90
2022-09-23T13:43:43.679Z,0.90
2022-09-23T13:46:15.816Z,0.80
2022-09-23T13:48:45.208Z,0.70
2022-09-23T13:51:16.986Z,0.80
2022-09-23T13:53:52.239Z,0.80
2022-09-23T13:56:19.116Z,0.80
2022-09-23T13:58:45.701Z,0.90
2022-09-23T14:01:33.626Z,0.70
2022-09-23T14:04:02.243Z,0.80
2022-09-23T14:06:32.072Z,1.20
2022-09-23T14:09:02.227Z,1.50
2022-09-23T14:11:31.674Z,1.20
2022-09-23T14:14:06.943Z,5.10
2022-09-23T14:16:38.406Z,1.80
2022-09-23T14:19:06.504Z,0.90
2022-09-23T14:21:39.129Z,1.00
2022-09-23T14:24:19.610Z,0.80
2022-09-23T14:27:06.168Z,0.90
2022-09-23T14:29:36.722Z,0.90
2022-09-23T14:32:16.465Z,1.00
2022-09-23T14:35:03.259Z,1.80
2022-09-23T14:37:55.696Z,2.00
2022-09-23T14:40:29.128Z,1.20
2022-09-23T14:42:55.594Z,1.50
2022-09-23T14:45:25.743Z,1.50
2022-09-23T14:47:58.411Z,1.90
2022-09-23T14:50:37.800Z,1.20
2022-09-23T14:53:06.310Z,1.00
2022-09-23T14:55:33.295Z,1.30
2022-09-23T14:58:06.112Z,1.00
2022-09-23T15:00:32.983Z,1.10
2022-09-23T15:03:02.536Z,1.10
2022-09-23T15:05:41.909Z,3.50
2022-09-23T15:08:13.289Z,2.00
2022-09-23T15:10:40.749Z,1.10
2022-09-23T15:13:12.722Z,1.60
2022-09-23T15:15:42.080Z,3.60
2022-09-23T15:18:18.712Z,2.70
2022-09-23T15:21:06.898Z,1.10
2022-09-23T15:23:48.342Z,2.20
2022-09-23T15:26:17.678Z,1.60
2022-09-23T15:28:45.127Z,1.90
2022-09-23T15:31:16.333Z,5.10
2022-09-23T15:33:50.380Z,1.80
2022-09-23T15:36:25.890Z,1.30
2022-09-23T15:38:53.043Z,1.10
2022-09-23T15:41:19.722Z,1.20
2022-09-23T15:43:46.975Z,2.40
2022-09-23T15:46:22.697Z,3.90
2022-09-23T15:49:02.838Z,1.20
2022-09-23T15:51:29.467Z,1.30
2022-09-23T15:53:56.555Z,1.10
2022-09-23T15:56:24.389Z,1.30
2022-09-23T15:58:51.354Z,1.00
2022-09-23T16:01:26.566Z,1.20
2022-09-23T16:03:53.459Z,1.20
2022-09-23T16:06:20.356Z,1.10
2022-09-23T16:08:48.766Z,1.20
2022-09-23T16:11:22.792Z,1.50
2022-09-23T16:13:49.659Z,1.80
2022-09-23T16:16:19.504Z,1.90
2022-09-23T16:18:46.761Z,1.50
2022-09-23T16:21:14.713Z,1.70
2022-09-23T16:23:43.722Z,1.30
2022-09-23T16:26:20.707Z,1.00
2022-09-23T16:28:48.813Z,1.10
2022-09-23T16:31:16.508Z,1.00
2022-09-23T16:33:44.596Z,1.30
2022-09-23T16:36:32.193Z,0.90
2022-09-23T16:39:00.441Z,1.30
2022-09-23T16:41:34.391Z,1.10
2022-09-23T16:44:04.385Z,1.10
2022-09-23T16:46:31.468Z,1.30
2022-09-23T16:48:59.301Z,1.20
2022-09-23T16:51:31.604Z,1.20
2022-09-23T16:53:59.427Z,1.30
2022-09-23T16:56:28.813Z,1.30
2022-09-23T16:58:56.341Z,1.30
2022-09-23T17:01:46.982Z,1.20
2022-09-23T17:04:16.116Z,1.40
2022-09-23T17:06:50.932Z,1.10
2022-09-23T17:09:19.867Z,1.30
2022-09-23T17:11:48.937Z,1.30
2022-09-23T17:14:16.010Z,1.20
2022-09-23T17:16:43.490Z,1.20
2022-09-23T17:19:12.103Z,1.30
2022-09-23T17:21:38.989Z,1.20
2022-09-23T17:24:06.422Z,1.30
2022-09-23T17:26:33.675Z,1.20
2022-09-23T17:29:01.634Z,1.40
2022-09-23T17:31:28.644Z,1.60
2022-09-23T17:33:55.170Z,1.30
2022-09-23T17:36:21.951Z,2.20
2022-09-23T17:38:49.803Z,3.30
2022-09-23T17:41:17.353Z,1.90
2022-09-23T17:43:44.677Z,1.70
2022-09-23T17:46:14.785Z,1.40
2022-09-23T17:48:43.367Z,1.40
2022-09-23T17:51:16.054Z,1.20
2022-09-23T17:53:45.396Z,1.30
2022-09-23T17:56:16.696Z,1.40
2022-09-23T17:58:44.611Z,1.40
2022-09-23T18:01:14.122Z,1.40
2022-09-23T18:03:44.109Z,1.40
2022-09-23T18:06:19.448Z,1.70
2022-09-23T18:08:48.150Z,1.60
2022-09-23T18:11:23.157Z,1.60
2022-09-23T18:13:49.570Z,1.70
2022-09-23T18:16:17.275Z,1.60
2022-09-23T18:18:44.664Z,1.60
2022-09-23T18:21:11.186Z,1.80
2022-09-23T18:23:37.741Z,1.90
2022-09-23T18:26:14.012Z,2.30
2022-09-23T18:28:40.823Z,2.40
2022-09-23T18:31:07.562Z,2.20
2022-09-23T18:33:34.128Z,2.20
2022-09-23T18:36:01.417Z,1.90
2022-09-23T18:38:28.015Z,2.10
2022-09-23T18:40:59.563Z,2.00
2022-09-23T18:43:37.498Z,2.10
2022-09-23T18:46:15.000Z,2.10
2022-09-23T18:49:00.708Z,2.30
2022-09-23T18:51:29.273Z,2.60
2022-09-23T18:53:58.457Z,2.70
2022-09-23T18:56:29.602Z,2.70
2022-09-23T18:58:56.527Z,2.50
2022-09-23T19:01:24.089Z,2.70
2022-09-23T19:03:57.786Z,2.60
2022-09-23T19:06:24.960Z,2.70
2022-09-23T19:08:53.075Z,2.70
2022-09-23T19:11:20.544Z,2.70
2022-09-23T19:13:51.994Z,2.70
2022-09-23T19:16:18.828Z,2.80
2022-09-23T19:18:48.937Z,3.80
2022-09-23T19:21:17.665Z,3.50
2022-09-23T19:23:57.688Z,3.30
2022-09-23T19:26:26.939Z,3.10
2022-09-23T19:28:55.553Z,3.50
2022-09-23T19:31:25.271Z,3.10
2022-09-23T19:33:59.969Z,3.20
2022-09-23T19:36:34.672Z,3.90
2022-09-23T19:39:04.316Z,5.40
2022-09-23T19:41:35.461Z,5.90
2022-09-23T19:44:03.270Z,6.30
2022-09-23T19:46:31.232Z,6.00
2022-09-23T19:48:58.583Z,6.30
2022-09-23T19:51:25.361Z,6.00
2022-09-23T19:53:52.679Z,5.60
2022-09-23T19:56:19.717Z,6.10
2022-09-23T19:58:48.128Z,7.00
2022-09-23T20:01:16.277Z,9.10
2022-09-23T20:03:47.141Z,5.70
2022-09-23T20:06:15.244Z,5.20
2022-09-23T20:08:42.105Z,4.20
2022-09-23T20:11:27.631Z,4.00
2022-09-23T20:14:04.839Z,3.60
2022-09-23T20:16:33.619Z,4.00
2022-09-23T20:19:01.265Z,3.50
2022-09-23T20:21:29.482Z,3.60
2022-09-23T20:23:57.326Z,3.80
2022-09-23T20:26:42.701Z,4.20
2022-09-23T20:29:10.666Z,4.20
2022-09-23T20:31:37.498Z,4.00
2022-09-23T20:34:06.968Z,4.00
2022-09-23T20:36:35.461Z,4.10
2022-09-23T20:39:05.793Z,3.80
2022-09-23T20:41:36.671Z,4.20
2022-09-23T20:44:05.741Z,4.30
2022-09-23T20:46:33.775Z,4.00
2022-09-23T20:49:01.912Z,4.60
2022-09-23T20:51:28.569Z,4.70
2022-09-23T20:53:55.983Z,5.40
2022-09-23T20:56:23.405Z,6.10
2022-09-23T20:58:52.492Z,5.70
2022-09-23T21:01:19.380Z,6.20
2022-09-23T21:03:48.630Z,6.50
2022-09-23T21:06:19.467Z,6.30
2022-09-23T21:08:46.888Z,6.20
2022-09-23T21:11:16.780Z,6.00
2022-09-23T21:13:48.249Z,6.00
2022-09-23T21:16:16.992Z,6.20
2022-09-23T21:18:44.857Z,5.70
2022-09-23T21:21:13.991Z,5.80
2022-09-23T21:23:41.867Z,5.90
2022-09-23T21:26:12.635Z,5.70
2022-09-23T21:28:44.040Z,6.40
2022-09-23T21:31:14.950Z,5.80
2022-09-23T21:33:41.994Z,6.10
2022-09-23T21:36:09.918Z,6.70
2022-09-23T21:38:37.651Z,5.90
2022-09-23T21:41:09.968Z,5.70
2022-09-23T21:43:40.547Z,5.80
2022-09-23T21:46:09.807Z,6.00
2022-09-23T21:48:39.872Z,6.20
2022-09-23T21:51:12.883Z,6.50
2022-09-23T21:53:40.867Z,6.40
2022-09-23T21:56:11.407Z,5.90
2022-09-23T21:58:39.536Z,6.10
2022-09-23T22:01:11.417Z,5.50
2022-09-23T22:03:38.864Z,5.40
2022-09-23T22:06:11.291Z,5.80
2022-09-23T22:08:40.424Z,5.50
2022-09-23T22:11:29.918Z,5.50
2022-09-23T22:13:57.863Z,5.40
2022-09-23T22:16:24.927Z,5.20
2022-09-23T22:18:55.211Z,5.60
2022-09-23T22:21:26.611Z,5.20
2022-09-23T22:23:54.582Z,5.90
2022-09-23T22:26:21.137Z,5.80
2022-09-23T22:29:06.617Z,5.50
2022-09-23T22:31:51.934Z,5.90
2022-09-23T22:34:47.464Z,6.10
2022-09-23T22:37:06.782Z,5.70
2022-09-23T22:39:33.701Z,5.20
2022-09-23T22:42:00.074Z,5.30
2022-09-23T22:44:26.747Z,5.50
2022-09-23T22:46:53.610Z,5.10
2022-09-23T22:49:20.490Z,5.50
2022-09-23T22:51:47.219Z,5.00
2022-09-23T22:54:13.974Z,5.40
2022-09-23T22:56:40.986Z,5.30
2022-09-23T22:59:10.232Z,5.60
2022-09-23T23:01:37.275Z,5.70
2022-09-23T23:04:05.583Z,5.50
2022-09-23T23:06:37.047Z,5.40
2022-09-23T23:09:13.145Z,5.80
2022-09-23T23:11:42.095Z,5.90
2022-09-23T23:14:09.668Z,5.60
2022-09-23T23:16:37.274Z,5.00
2022-09-23T23:19:06.664Z,5.00
2022-09-23T23:21:33.987Z,5.60
2022-09-23T23:24:01.012Z,5.50
2022-09-23T23:26:28.912Z,4.80
2022-09-23T23:28:56.685Z,5.10
2022-09-23T23:31:26.393Z,5.00
2022-09-23T23:33:53.743Z,5.00
2022-09-23T23:36:22.483Z,4.60
2022-09-23T23:38:51.519Z,4.70
2022-09-23T23:41:22.601Z,5.10
2022-09-23T23:43:58.186Z,4.80
2022-09-23T23:46:27.641Z,4.90
2022-09-23T23:48:55.615Z,4.40
2022-09-23T23:51:22.981Z,4.60
2022-09-23T23:53:50.158Z,4.00
2022-09-23T23:56:19.332Z,4.20
2022-09-23T23:58:46.347Z,4.10
